Time;durP1;ratioP1;P1;durP2;ratioP2;P2;SDS_P1;SDS_P2;PMS_P1;PMS_P2;Temp;Humidity;BMP_temperature;BMP_pressure;BME280_temperature;BME280_humidity;BME280_pressure;Samples;Min_cycle;Max_cycle;Signal;HPM_P1;HPM_P2
2022/07/08 00:00:12;;;;;;;8.699999;7.95;;;;;;;14.75;86.07422;96164.53;;;;
2022/07/08 00:01:13;;;;;;;8.699999;7.95;;;;;;;14.75;86.07422;96164.53;;;;
2022/07/08 00:02:14;;;;;;;8.699999;7.95;;;;;;;14.75;86.07422;96164.53;;;;
2022/07/08 00:03:15;;;;;;;8.699999;7.95;;;;;;;14.75;86.07422;96164.53;;;;
2022/07/08 00:04:15;;;;;;;8.699999;7.95;;;;;;;14.75;86.07422;96164.53;;;;
2022/07/08 00:05:16;;;;;;;8.699999;7.95;;;;;;;14.75;86.07422;96164.53;;;;
2022/07/08 00:06:17;;;;;;;8.699999;7.95;;;;;;;14.75;86.07422;96164.53;;;;
2022/07/08 00:07:17;;;;;;;8.699999;7.95;;;;;;;14.75;86.07422;96164.53;;;;
2022/07/08 00:08:19;;;;;;;8.699999;7.95;;;;;;;14.75;86.07422;96164.53;;;;
2022/07/08 00:09:20;;;;;;;8.699999;7.95;;;;;;;14.75;86.07422;96164.53;;;;
2022/07/08 00:10:21;;;;;;;9.150002;8.1;;;;;;;14.8;86.3125;96163.75;;;;
2022/07/08 00:11:21;;;;;;;9.150002;8.1;;;;;;;14.8;86.3125;96163.75;;;;
2022/07/08 00:12:22;;;;;;;9.150002;8.1;;;;;;;14.8;86.3125;96163.75;;;;
2022/07/08 00:13:23;;;;;;;9.150002;8.1;;;;;;;14.8;86.3125;96163.75;;;;
2022/07/08 00:14:23;;;;;;;9.150002;8.1;;;;;;;14.8;86.3125;96163.75;;;;
2022/07/08 00:15:24;;;;;;;9.150002;8.1;;;;;;;14.8;86.3125;96163.75;;;;
2022/07/08 00:16:24;;;;;;;9.150002;8.1;;;;;;;14.8;86.3125;96163.75;;;;
2022/07/08 00:17:25;;;;;;;9.150002;8.1;;;;;;;14.8;86.3125;96163.75;;;;
2022/07/08 00:18:26;;;;;;;9.150002;8.1;;;;;;;14.8;86.3125;96163.75;;;;
2022/07/08 00:19:26;;;;;;;9.150002;8.1;;;;;;;14.8;86.3125;96163.75;;;;
2022/07/08 00:20:27;;;;;;;9.9;8.400001;;;;;;;14.75;86.34473;96160;;;;
2022/07/08 00:21:27;;;;;;;9.9;8.400001;;;;;;;14.75;86.34473;96160;;;;
2022/07/08 00:22:28;;;;;;;9.9;8.400001;;;;;;;14.75;86.34473;96160;;;;
2022/07/08 00:23:28;;;;;;;9.9;8.400001;;;;;;;14.75;86.34473;96160;;;;
2022/07/08 00:24:29;;;;;;;9.9;8.400001;;;;;;;14.75;86.34473;96160;;;;
2022/07/08 00:25:29;;;;;;;9.9;8.400001;;;;;;;14.75;86.34473;96160;;;;
2022/07/08 00:26:30;;;;;;;9.9;8.400001;;;;;;;14.75;86.34473;96160;;;;
2022/07/08 00:27:30;;;;;;;9.9;8.400001;;;;;;;14.75;86.34473;96160;;;;
2022/07/08 00:28:31;;;;;;;9.9;8.400001;;;;;;;14.75;86.34473;96160;;;;
2022/07/08 00:29:32;;;;;;;9.9;8.400001;;;;;;;14.75;86.34473;96160;;;;
2022/07/08 00:30:33;;;;;;;9.9;8.400001;;;;;;;14.75;86.34473;96160;;;;
2022/07/08 00:31:33;;;;;;;11.35;8.6;;;;;;;14.73;86.59961;96158.18;;;;
2022/07/08 00:32:34;;;;;;;11.35;8.6;;;;;;;14.73;86.59961;96158.18;;;;
2022/07/08 00:33:35;;;;;;;11.35;8.6;;;;;;;14.73;86.59961;96158.18;;;;
2022/07/08 00:34:36;;;;;;;11.35;8.6;;;;;;;14.73;86.59961;96158.18;;;;
2022/07/08 00:35:36;;;;;;;11.35;8.6;;;;;;;14.73;86.59961;96158.18;;;;
2022/07/08 00:36:37;;;;;;;11.35;8.6;;;;;;;14.73;86.59961;96158.18;;;;
2022/07/08 00:37:37;;;;;;;11.35;8.6;;;;;;;14.73;86.59961;96158.18;;;;
2022/07/08 00:38:38;;;;;;;11.35;8.6;;;;;;;14.73;86.59961;96158.18;;;;
2022/07/08 00:39:38;;;;;;;11.35;8.6;;;;;;;14.73;86.59961;96158.18;;;;
2022/07/08 00:40:39;;;;;;;11.35;8.6;;;;;;;14.73;86.59961;96158.18;;;;
2022/07/08 00:41:39;;;;;;;11.35;8.6;;;;;;;14.73;86.59961;96158.18;;;;
2022/07/08 00:42:40;;;;;;;9.450001;8.449999;;;;;;;14.69;86.66992;96158.72;;;;
2022/07/08 00:43:40;;;;;;;9.450001;8.449999;;;;;;;14.69;86.66992;96158.72;;;;
2022/07/08 00:44:43;;;;;;;9.450001;8.449999;;;;;;;14.69;86.66992;96158.72;;;;
2022/07/08 00:45:43;;;;;;;9.450001;8.449999;;;;;;;14.69;86.66992;96158.72;;;;
2022/07/08 00:46:44;;;;;;;9.450001;8.449999;;;;;;;14.69;86.66992;96158.72;;;;
2022/07/08 00:47:44;;;;;;;9.450001;8.449999;;;;;;;14.69;86.66992;96158.72;;;;
2022/07/08 00:48:45;;;;;;;9.450001;8.449999;;;;;;;14.69;86.66992;96158.72;;;;
2022/07/08 00:49:45;;;;;;;9.450001;8.449999;;;;;;;14.69;86.66992;96158.72;;;;
2022/07/08 00:50:46;;;;;;;9.450001;8.449999;;;;;;;14.69;86.66992;96158.72;;;;
2022/07/08 00:51:46;;;;;;;9.450001;8.449999;;;;;;;14.69;86.66992;96158.72;;;;
2022/07/08 00:52:48;;;;;;;9.799998;8.9;;;;;;;14.73;86.8916;96159.52;;;;
2022/07/08 00:53:49;;;;;;;9.799998;8.9;;;;;;;14.73;86.8916;96159.52;;;;
2022/07/08 00:54:52;;;;;;;9.799998;8.9;;;;;;;14.73;86.8916;96159.52;;;;
2022/07/08 00:55:53;;;;;;;9.799998;8.9;;;;;;;14.73;86.8916;96159.52;;;;
2022/07/08 00:56:55;;;;;;;9.799998;8.9;;;;;;;14.73;86.8916;96159.52;;;;
2022/07/08 00:57:56;;;;;;;9.799998;8.9;;;;;;;14.73;86.8916;96159.52;;;;
2022/07/08 00:58:56;;;;;;;9.799998;8.9;;;;;;;14.73;86.8916;96159.52;;;;
2022/07/08 00:59:58;;;;;;;9.799998;8.9;;;;;;;14.73;86.8916;96159.52;;;;
2022/07/08 01:00:58;;;;;;;9.799998;8.9;;;;;;;14.73;86.8916;96159.52;;;;
2022/07/08 01:01:59;;;;;;;9.799998;8.9;;;;;;;14.73;86.8916;96159.52;;;;
2022/07/08 01:03:00;;;;;;;9.799998;8.9;;;;;;;14.73;86.8916;96159.52;;;;
2022/07/08 01:04:01;;;;;;;9.799999;8.899999;;;;;;;14.67;86.90234;96148.41;;;;
2022/07/08 01:05:02;;;;;;;9.799999;8.899999;;;;;;;14.67;86.90234;96148.41;;;;
2022/07/08 01:06:03;;;;;;;9.799999;8.899999;;;;;;;14.67;86.90234;96148.41;;;;
2022/07/08 01:07:04;;;;;;;9.799999;8.899999;;;;;;;14.67;86.90234;96148.41;;;;
2022/07/08 01:08:06;;;;;;;9.799999;8.899999;;;;;;;14.67;86.90234;96148.41;;;;
2022/07/08 01:09:06;;;;;;;9.799999;8.899999;;;;;;;14.67;86.90234;96148.41;;;;
2022/07/08 01:10:08;;;;;;;9.799999;8.899999;;;;;;;14.67;86.90234;96148.41;;;;
2022/07/08 01:11:09;;;;;;;9.799999;8.899999;;;;;;;14.67;86.90234;96148.41;;;;
2022/07/08 01:12:11;;;;;;;9.799999;8.899999;;;;;;;14.67;86.90234;96148.41;;;;
2022/07/08 01:13:11;;;;;;;9.799999;8.899999;;;;;;;14.67;86.90234;96148.41;;;;
2022/07/08 01:14:12;;;;;;;11.3;10.3;;;;;;;14.68;87.1416;96152.69;;;;
2022/07/08 01:15:14;;;;;;;11.3;10.3;;;;;;;14.68;87.1416;96152.69;;;;
2022/07/08 01:16:14;;;;;;;11.3;10.3;;;;;;;14.68;87.1416;96152.69;;;;
2022/07/08 01:17:15;;;;;;;11.3;10.3;;;;;;;14.68;87.1416;96152.69;;;;
2022/07/08 01:18:15;;;;;;;11.3;10.3;;;;;;;14.68;87.1416;96152.69;;;;
2022/07/08 01:19:21;;;;;;;11.3;10.3;;;;;;;14.68;87.1416;96152.69;;;;
2022/07/08 01:20:21;;;;;;;11.3;10.3;;;;;;;14.68;87.1416;96152.69;;;;
2022/07/08 01:21:22;;;;;;;11.3;10.3;;;;;;;14.68;87.1416;96152.69;;;;
2022/07/08 01:22:22;;;;;;;11.3;10.3;;;;;;;14.68;87.1416;96152.69;;;;
2022/07/08 01:23:23;;;;;;;11.3;10.3;;;;;;;14.68;87.1416;96152.69;;;;
2022/07/08 01:24:24;;;;;;;11.3;10.3;;;;;;;14.68;87.1416;96152.69;;;;
2022/07/08 01:25:25;;;;;;;10.9;9.9;;;;;;;14.6;87.20313;96153.78;;;;
2022/07/08 01:26:25;;;;;;;10.9;9.9;;;;;;;14.6;87.20313;96153.78;;;;
2022/07/08 01:27:26;;;;;;;10.9;9.9;;;;;;;14.6;87.20313;96153.78;;;;
2022/07/08 01:28:26;;;;;;;10.9;9.9;;;;;;;14.6;87.20313;96153.78;;;;
2022/07/08 01:29:28;;;;;;;10.9;9.9;;;;;;;14.6;87.20313;96153.78;;;;
2022/07/08 01:30:29;;;;;;;10.9;9.9;;;;;;;14.6;87.20313;96153.78;;;;
2022/07/08 01:31:30;;;;;;;10.9;9.9;;;;;;;14.6;87.20313;96153.78;;;;
2022/07/08 01:32:30;;;;;;;10.9;9.9;;;;;;;14.6;87.20313;96153.78;;;;
2022/07/08 01:33:32;;;;;;;10.9;9.9;;;;;;;14.6;87.20313;96153.78;;;;
2022/07/08 01:34:33;;;;;;;10.9;9.9;;;;;;;14.6;87.20313;96153.78;;;;
2022/07/08 01:35:34;;;;;;;11.2;10.05;;;;;;;14.61;87.46387;96157.14;;;;
2022/07/08 01:36:35;;;;;;;11.2;10.05;;;;;;;14.61;87.46387;96157.14;;;;
2022/07/08 01:37:35;;;;;;;11.2;10.05;;;;;;;14.61;87.46387;96157.14;;;;
2022/07/08 01:38:36;;;;;;;11.2;10.05;;;;;;;14.61;87.46387;96157.14;;;;
2022/07/08 01:39:37;;;;;;;11.2;10.05;;;;;;;14.61;87.46387;96157.14;;;;
2022/07/08 01:40:37;;;;;;;11.2;10.05;;;;;;;14.61;87.46387;96157.14;;;;
2022/07/08 01:41:38;;;;;;;11.2;10.05;;;;;;;14.61;87.46387;96157.14;;;;
2022/07/08 01:42:38;;;;;;;11.2;10.05;;;;;;;14.61;87.46387;96157.14;;;;
2022/07/08 01:43:39;;;;;;;11.2;10.05;;;;;;;14.61;87.46387;96157.14;;;;
2022/07/08 01:44:39;;;;;;;11.2;10.05;;;;;;;14.61;87.46387;96157.14;;;;
2022/07/08 01:45:40;;;;;;;11.2;10.05;;;;;;;14.61;87.46387;96157.14;;;;
2022/07/08 01:46:40;;;;;;;11.9;10.45;;;;;;;14.59;87.53613;96162.77;;;;
2022/07/08 01:47:41;;;;;;;11.9;10.45;;;;;;;14.59;87.53613;96162.77;;;;
2022/07/08 01:48:42;;;;;;;11.9;10.45;;;;;;;14.59;87.53613;96162.77;;;;
2022/07/08 01:49:43;;;;;;;11.9;10.45;;;;;;;14.59;87.53613;96162.77;;;;
2022/07/08 01:50:44;;;;;;;11.9;10.45;;;;;;;14.59;87.53613;96162.77;;;;
2022/07/08 01:51:44;;;;;;;11.9;10.45;;;;;;;14.59;87.53613;96162.77;;;;
2022/07/08 01:52:45;;;;;;;11.9;10.45;;;;;;;14.59;87.53613;96162.77;;;;
2022/07/08 01:53:45;;;;;;;11.9;10.45;;;;;;;14.59;87.53613;96162.77;;;;
2022/07/08 01:54:46;;;;;;;11.9;10.45;;;;;;;14.59;87.53613;96162.77;;;;
2022/07/08 01:55:47;;;;;;;11.9;10.45;;;;;;;14.59;87.53613;96162.77;;;;
2022/07/08 01:56:47;;;;;;;11.7;10.55;;;;;;;14.63;87.73828;96167.56;;;;
2022/07/08 01:57:48;;;;;;;11.7;10.55;;;;;;;14.63;87.73828;96167.56;;;;
2022/07/08 01:58:48;;;;;;;11.7;10.55;;;;;;;14.63;87.73828;96167.56;;;;
2022/07/08 01:59:49;;;;;;;11.7;10.55;;;;;;;14.63;87.73828;96167.56;;;;
2022/07/08 02:00:50;;;;;;;11.7;10.55;;;;;;;14.63;87.73828;96167.56;;;;
2022/07/08 02:01:51;;;;;;;11.7;10.55;;;;;;;14.63;87.73828;96167.56;;;;
2022/07/08 02:02:51;;;;;;;11.7;10.55;;;;;;;14.63;87.73828;96167.56;;;;
2022/07/08 02:03:52;;;;;;;11.7;10.55;;;;;;;14.63;87.73828;96167.56;;;;
2022/07/08 02:04:52;;;;;;;11.7;10.55;;;;;;;14.63;87.73828;96167.56;;;;
2022/07/08 02:05:53;;;;;;;11.7;10.55;;;;;;;14.63;87.73828;96167.56;;;;
2022/07/08 02:06:53;;;;;;;11.7;10.55;;;;;;;14.63;87.73828;96167.56;;;;
2022/07/08 02:07:54;;;;;;;11.5;10.4;;;;;;;14.61;87.77832;96170.95;;;;
2022/07/08 02:08:55;;;;;;;11.5;10.4;;;;;;;14.61;87.77832;96170.95;;;;
2022/07/08 02:09:55;;;;;;;11.5;10.4;;;;;;;14.61;87.77832;96170.95;;;;
2022/07/08 02:16:08;;;;;;;11.5;10.4;;;;;;;14.61;87.77832;96170.95;;;;
2022/07/08 02:17:09;;;;;;;11.5;10.4;;;;;;;14.61;87.77832;96170.95;;;;
2022/07/08 02:18:09;;;;;;;12;10.85;;;;;;;14.64;87.95801;96181.98;;;;
2022/07/08 02:19:10;;;;;;;12;10.85;;;;;;;14.64;87.95801;96181.98;;;;
2022/07/08 02:20:11;;;;;;;12;10.85;;;;;;;14.64;87.95801;96181.98;;;;
2022/07/08 02:21:13;;;;;;;12;10.85;;;;;;;14.64;87.95801;96181.98;;;;
2022/07/08 02:22:13;;;;;;;12;10.85;;;;;;;14.64;87.95801;96181.98;;;;
2022/07/08 02:23:14;;;;;;;12;10.85;;;;;;;14.64;87.95801;96181.98;;;;
2022/07/08 02:24:15;;;;;;;12;10.85;;;;;;;14.64;87.95801;96181.98;;;;
2022/07/08 02:25:15;;;;;;;12;10.85;;;;;;;14.64;87.95801;96181.98;;;;
2022/07/08 02:26:16;;;;;;;12;10.85;;;;;;;14.64;87.95801;96181.98;;;;
2022/07/08 02:27:17;;;;;;;12;10.85;;;;;;;14.64;87.95801;96181.98;;;;
2022/07/08 02:28:17;;;;;;;12;10.85;;;;;;;14.64;87.95801;96181.98;;;;
2022/07/08 02:29:18;;;;;;;12;10.85;;;;;;;14.64;87.95801;96181.98;;;;
2022/07/08 02:30:18;;;;;;;12;10.85;;;;;;;14.64;87.95801;96181.98;;;;
2022/07/08 02:31:19;;;;;;;12;10.85;;;;;;;14.64;87.95801;96181.98;;;;
2022/07/08 02:32:19;;;;;;;12;10.85;;;;;;;14.64;87.95801;96181.98;;;;
2022/07/08 02:33:20;;;;;;;12;10.85;;;;;;;14.64;87.95801;96181.98;;;;
2022/07/08 02:34:20;;;;;;;12;10.85;;;;;;;14.64;87.95801;96181.98;;;;
2022/07/08 02:35:21;;;;;;;12;10.85;;;;;;;14.64;87.95801;96181.98;;;;
2022/07/08 02:36:21;;;;;;;12;10.85;;;;;;;14.64;87.95801;96181.98;;;;
2022/07/08 02:37:22;;;;;;;12;10.85;;;;;;;14.64;87.95801;96181.98;;;;
2022/07/08 02:38:24;;;;;;;12;10.85;;;;;;;14.64;87.95801;96181.98;;;;
2022/07/08 02:39:25;;;;;;;12.25;11;;;;;;;14.59;88.15234;96204.43;;;;
2022/07/08 02:40:26;;;;;;;12.25;11;;;;;;;14.59;88.15234;96204.43;;;;
2022/07/08 02:41:26;;;;;;;12.25;11;;;;;;;14.59;88.15234;96204.43;;;;
2022/07/08 02:42:27;;;;;;;12.25;11;;;;;;;14.59;88.15234;96204.43;;;;
2022/07/08 02:43:27;;;;;;;12.25;11;;;;;;;14.59;88.15234;96204.43;;;;
2022/07/08 02:44:28;;;;;;;12.25;11;;;;;;;14.59;88.15234;96204.43;;;;
2022/07/08 02:45:28;;;;;;;12.25;11;;;;;;;14.59;88.15234;96204.43;;;;
2022/07/08 02:46:29;;;;;;;12.25;11;;;;;;;14.59;88.15234;96204.43;;;;
2022/07/08 02:47:29;;;;;;;12.25;11;;;;;;;14.59;88.15234;96204.43;;;;
2022/07/08 02:48:30;;;;;;;12.25;11;;;;;;;14.59;88.15234;96204.43;;;;
2022/07/08 02:49:30;;;;;;;12.25;11;;;;;;;14.59;88.15234;96204.43;;;;
2022/07/08 02:50:30;;;;;;;6.299999;5.650001;;;;;;;14.44;87.99316;96212.41;;;;
2022/07/08 02:51:31;;;;;;;6.299999;5.650001;;;;;;;14.44;87.99316;96212.41;;;;
2022/07/08 02:52:32;;;;;;;6.299999;5.650001;;;;;;;14.44;87.99316;96212.41;;;;
2022/07/08 02:53:32;;;;;;;6.299999;5.650001;;;;;;;14.44;87.99316;96212.41;;;;
2022/07/08 02:54:33;;;;;;;6.299999;5.650001;;;;;;;14.44;87.99316;96212.41;;;;
2022/07/08 02:55:33;;;;;;;6.299999;5.650001;;;;;;;14.44;87.99316;96212.41;;;;
2022/07/08 02:56:34;;;;;;;6.299999;5.650001;;;;;;;14.44;87.99316;96212.41;;;;
2022/07/08 02:57:35;;;;;;;6.299999;5.650001;;;;;;;14.44;87.99316;96212.41;;;;
2022/07/08 02:58:35;;;;;;;6.299999;5.650001;;;;;;;14.44;87.99316;96212.41;;;;
2022/07/08 02:59:36;;;;;;;6.299999;5.650001;;;;;;;14.44;87.99316;96212.41;;;;
2022/07/08 03:00:36;;;;;;;7.45;4.649999;;;;;;;14.2;87.83789;96232.93;;;;
2022/07/08 03:01:37;;;;;;;7.45;4.649999;;;;;;;14.2;87.83789;96232.93;;;;
2022/07/08 03:02:37;;;;;;;7.45;4.649999;;;;;;;14.2;87.83789;96232.93;;;;
2022/07/08 03:03:38;;;;;;;7.45;4.649999;;;;;;;14.2;87.83789;96232.93;;;;
2022/07/08 03:04:38;;;;;;;7.45;4.649999;;;;;;;14.2;87.83789;96232.93;;;;
2022/07/08 03:05:39;;;;;;;7.45;4.649999;;;;;;;14.2;87.83789;96232.93;;;;
2022/07/08 03:06:39;;;;;;;7.45;4.649999;;;;;;;14.2;87.83789;96232.93;;;;
2022/07/08 03:07:40;;;;;;;7.45;4.649999;;;;;;;14.2;87.83789;96232.93;;;;
2022/07/08 03:08:40;;;;;;;7.45;4.649999;;;;;;;14.2;87.83789;96232.93;;;;
2022/07/08 03:09:41;;;;;;;7.45;4.649999;;;;;;;14.2;87.83789;96232.93;;;;
2022/07/08 03:10:41;;;;;;;7.45;4.649999;;;;;;;14.2;87.83789;96232.93;;;;
2022/07/08 03:11:42;;;;;;;6.85;4.050001;;;;;;;13.87;87.5791;96249.94;;;;
2022/07/08 03:12:42;;;;;;;6.85;4.050001;;;;;;;13.87;87.5791;96249.94;;;;
2022/07/08 03:13:43;;;;;;;6.85;4.050001;;;;;;;13.87;87.5791;96249.94;;;;
2022/07/08 03:14:43;;;;;;;6.85;4.050001;;;;;;;13.87;87.5791;96249.94;;;;
2022/07/08 03:15:44;;;;;;;6.85;4.050001;;;;;;;13.87;87.5791;96249.94;;;;
2022/07/08 03:16:44;;;;;;;6.85;4.050001;;;;;;;13.87;87.5791;96249.94;;;;
2022/07/08 03:17:45;;;;;;;6.85;4.050001;;;;;;;13.87;87.5791;96249.94;;;;
2022/07/08 03:18:45;;;;;;;6.85;4.050001;;;;;;;13.87;87.5791;96249.94;;;;
2022/07/08 03:19:46;;;;;;;6.85;4.050001;;;;;;;13.87;87.5791;96249.94;;;;
2022/07/08 03:20:46;;;;;;;6.85;4.050001;;;;;;;13.87;87.5791;96249.94;;;;
2022/07/08 03:21:47;;;;;;;6.85;4.050001;;;;;;;13.87;87.5791;96249.94;;;;
2022/07/08 03:22:47;;;;;;;8.700001;4.15;;;;;;;13.6;87.55566;96276.76;;;;
2022/07/08 03:23:48;;;;;;;8.700001;4.15;;;;;;;13.6;87.55566;96276.76;;;;
2022/07/08 03:24:48;;;;;;;8.700001;4.15;;;;;;;13.6;87.55566;96276.76;;;;
2022/07/08 03:25:49;;;;;;;8.700001;4.15;;;;;;;13.6;87.55566;96276.76;;;;
2022/07/08 03:26:49;;;;;;;8.700001;4.15;;;;;;;13.6;87.55566;96276.76;;;;
2022/07/08 03:27:50;;;;;;;8.700001;4.15;;;;;;;13.6;87.55566;96276.76;;;;
2022/07/08 03:28:51;;;;;;;8.700001;4.15;;;;;;;13.6;87.55566;96276.76;;;;
2022/07/08 03:29:51;;;;;;;8.700001;4.15;;;;;;;13.6;87.55566;96276.76;;;;
2022/07/08 03:30:52;;;;;;;8.700001;4.15;;;;;;;13.6;87.55566;96276.76;;;;
2022/07/08 03:31:52;;;;;;;8.700001;4.15;;;;;;;13.6;87.55566;96276.76;;;;
2022/07/08 03:32:53;;;;;;;7.849999;4.099999;;;;;;;13.36;87.60645;96280.43;;;;
2022/07/08 03:33:54;;;;;;;7.849999;4.099999;;;;;;;13.36;87.60645;96280.43;;;;
2022/07/08 03:34:54;;;;;;;7.849999;4.099999;;;;;;;13.36;87.60645;96280.43;;;;
2022/07/08 03:35:55;;;;;;;7.849999;4.099999;;;;;;;13.36;87.60645;96280.43;;;;
2022/07/08 03:36:55;;;;;;;7.849999;4.099999;;;;;;;13.36;87.60645;96280.43;;;;
2022/07/08 03:37:56;;;;;;;7.849999;4.099999;;;;;;;13.36;87.60645;96280.43;;;;
2022/07/08 03:38:56;;;;;;;7.849999;4.099999;;;;;;;13.36;87.60645;96280.43;;;;
2022/07/08 03:41:19;;;;;;;7.849999;4.099999;;;;;;;13.36;87.60645;96280.43;;;;
2022/07/08 03:42:20;;;;;;;7.849999;4.099999;;;;;;;13.36;87.60645;96280.43;;;;
2022/07/08 03:43:21;;;;;;;5.95;3.6;;;;;;;13.26;87.81152;96299.92;;;;
2022/07/08 03:44:22;;;;;;;5.95;3.6;;;;;;;13.26;87.81152;96299.92;;;;
2022/07/08 03:45:22;;;;;;;5.95;3.6;;;;;;;13.26;87.81152;96299.92;;;;
2022/07/08 03:46:23;;;;;;;5.95;3.6;;;;;;;13.26;87.81152;96299.92;;;;
2022/07/08 03:47:23;;;;;;;5.95;3.6;;;;;;;13.26;87.81152;96299.92;;;;
2022/07/08 03:48:24;;;;;;;5.95;3.6;;;;;;;13.26;87.81152;96299.92;;;;
2022/07/08 03:49:25;;;;;;;5.95;3.6;;;;;;;13.26;87.81152;96299.92;;;;
2022/07/08 03:50:25;;;;;;;5.95;3.6;;;;;;;13.26;87.81152;96299.92;;;;
2022/07/08 03:51:26;;;;;;;5.95;3.6;;;;;;;13.26;87.81152;96299.92;;;;
2022/07/08 03:52:27;;;;;;;5.95;3.6;;;;;;;13.26;87.81152;96299.92;;;;
2022/07/08 03:53:27;;;;;;;5.95;3.6;;;;;;;13.26;87.81152;96299.92;;;;
2022/07/08 03:54:28;;;;;;;6.750001;3.8;;;;;;;13.1;87.7373;96321.97;;;;
2022/07/08 03:55:28;;;;;;;6.750001;3.8;;;;;;;13.1;87.7373;96321.97;;;;
2022/07/08 03:56:29;;;;;;;6.750001;3.8;;;;;;;13.1;87.7373;96321.97;;;;
2022/07/08 03:57:29;;;;;;;6.750001;3.8;;;;;;;13.1;87.7373;96321.97;;;;
2022/07/08 03:58:30;;;;;;;6.750001;3.8;;;;;;;13.1;87.7373;96321.97;;;;
2022/07/08 03:59:30;;;;;;;6.750001;3.8;;;;;;;13.1;87.7373;96321.97;;;;
2022/07/08 04:00:31;;;;;;;6.750001;3.8;;;;;;;13.1;87.7373;96321.97;;;;
2022/07/08 04:01:31;;;;;;;6.750001;3.8;;;;;;;13.1;87.7373;96321.97;;;;
2022/07/08 04:02:32;;;;;;;6.750001;3.8;;;;;;;13.1;87.7373;96321.97;;;;
2022/07/08 04:03:33;;;;;;;6.750001;3.8;;;;;;;13.1;87.7373;96321.97;;;;
2022/07/08 04:04:33;;;;;;;5.850001;3.3;;;;;;;13.09;87.90918;96348.64;;;;
2022/07/08 04:05:34;;;;;;;5.850001;3.3;;;;;;;13.09;87.90918;96348.64;;;;
2022/07/08 04:06:34;;;;;;;5.850001;3.3;;;;;;;13.09;87.90918;96348.64;;;;
2022/07/08 04:07:35;;;;;;;5.850001;3.3;;;;;;;13.09;87.90918;96348.64;;;;
2022/07/08 04:08:35;;;;;;;5.850001;3.3;;;;;;;13.09;87.90918;96348.64;;;;
2022/07/08 04:09:36;;;;;;;5.850001;3.3;;;;;;;13.09;87.90918;96348.64;;;;
2022/07/08 04:10:37;;;;;;;5.850001;3.3;;;;;;;13.09;87.90918;96348.64;;;;
2022/07/08 04:11:38;;;;;;;5.850001;3.3;;;;;;;13.09;87.90918;96348.64;;;;
2022/07/08 04:12:38;;;;;;;5.850001;3.3;;;;;;;13.09;87.90918;96348.64;;;;
2022/07/08 04:13:39;;;;;;;5.850001;3.3;;;;;;;13.09;87.90918;96348.64;;;;
2022/07/08 04:14:40;;;;;;;5.850001;3.3;;;;;;;13.09;87.90918;96348.64;;;;
2022/07/08 04:15:40;;;;;;;5.900001;2.65;;;;;;;13.01;87.68555;96366.16;;;;
2022/07/08 04:16:41;;;;;;;5.900001;2.65;;;;;;;13.01;87.68555;96366.16;;;;
2022/07/08 04:17:41;;;;;;;5.900001;2.65;;;;;;;13.01;87.68555;96366.16;;;;
2022/07/08 04:18:42;;;;;;;5.900001;2.65;;;;;;;13.01;87.68555;96366.16;;;;
2022/07/08 04:19:42;;;;;;;5.900001;2.65;;;;;;;13.01;87.68555;96366.16;;;;
2022/07/08 04:20:43;;;;;;;5.900001;2.65;;;;;;;13.01;87.68555;96366.16;;;;
2022/07/08 04:21:43;;;;;;;5.900001;2.65;;;;;;;13.01;87.68555;96366.16;;;;
2022/07/08 04:22:44;;;;;;;5.900001;2.65;;;;;;;13.01;87.68555;96366.16;;;;
2022/07/08 04:23:44;;;;;;;5.900001;2.65;;;;;;;13.01;87.68555;96366.16;;;;
2022/07/08 04:24:45;;;;;;;5.900001;2.65;;;;;;;13.01;87.68555;96366.16;;;;
2022/07/08 04:25:45;;;;;;;5.900001;2.65;;;;;;;13.01;87.68555;96366.16;;;;
2022/07/08 04:26:46;;;;;;;7.449999;3;;;;;;;12.98;87.58301;96370.51;;;;
2022/07/08 04:27:46;;;;;;;7.449999;3;;;;;;;12.98;87.58301;96370.51;;;;
2022/07/08 04:28:47;;;;;;;7.449999;3;;;;;;;12.98;87.58301;96370.51;;;;
2022/07/08 04:29:47;;;;;;;7.449999;3;;;;;;;12.98;87.58301;96370.51;;;;
2022/07/08 04:30:48;;;;;;;7.449999;3;;;;;;;12.98;87.58301;96370.51;;;;
2022/07/08 04:31:48;;;;;;;7.449999;3;;;;;;;12.98;87.58301;96370.51;;;;
2022/07/08 04:32:49;;;;;;;7.449999;3;;;;;;;12.98;87.58301;96370.51;;;;
2022/07/08 04:33:49;;;;;;;7.449999;3;;;;;;;12.98;87.58301;96370.51;;;;
2022/07/08 04:34:51;;;;;;;7.449999;3;;;;;;;12.98;87.58301;96370.51;;;;
2022/07/08 04:35:52;;;;;;;7.449999;3;;;;;;;12.98;87.58301;96370.51;;;;
2022/07/08 04:36:53;;;;;;;7.949999;2.9;;;;;;;12.89;87.39453;96382.73;;;;
2022/07/08 04:37:53;;;;;;;7.949999;2.9;;;;;;;12.89;87.39453;96382.73;;;;
2022/07/08 04:38:53;;;;;;;7.949999;2.9;;;;;;;12.89;87.39453;96382.73;;;;
2022/07/08 04:39:54;;;;;;;7.949999;2.9;;;;;;;12.89;87.39453;96382.73;;;;
2022/07/08 04:40:54;;;;;;;7.949999;2.9;;;;;;;12.89;87.39453;96382.73;;;;
2022/07/08 04:41:55;;;;;;;7.949999;2.9;;;;;;;12.89;87.39453;96382.73;;;;
2022/07/08 04:42:55;;;;;;;7.949999;2.9;;;;;;;12.89;87.39453;96382.73;;;;
2022/07/08 04:43:56;;;;;;;7.949999;2.9;;;;;;;12.89;87.39453;96382.73;;;;
2022/07/08 04:44:56;;;;;;;7.949999;2.9;;;;;;;12.89;87.39453;96382.73;;;;
2022/07/08 04:45:57;;;;;;;7.949999;2.9;;;;;;;12.89;87.39453;96382.73;;;;
2022/07/08 04:46:58;;;;;;;7.949999;2.9;;;;;;;12.89;87.39453;96382.73;;;;
2022/07/08 04:47:58;;;;;;;5.3;2.5;;;;;;;12.82;87.28418;96390.28;;;;
2022/07/08 04:48:58;;;;;;;5.3;2.5;;;;;;;12.82;87.28418;96390.28;;;;
2022/07/08 04:49:59;;;;;;;5.3;2.5;;;;;;;12.82;87.28418;96390.28;;;;
2022/07/08 04:51:00;;;;;;;5.3;2.5;;;;;;;12.82;87.28418;96390.28;;;;
2022/07/08 04:52:00;;;;;;;5.3;2.5;;;;;;;12.82;87.28418;96390.28;;;;
2022/07/08 04:53:01;;;;;;;5.3;2.5;;;;;;;12.82;87.28418;96390.28;;;;
2022/07/08 04:54:01;;;;;;;5.3;2.5;;;;;;;12.82;87.28418;96390.28;;;;
2022/07/08 04:55:02;;;;;;;5.3;2.5;;;;;;;12.82;87.28418;96390.28;;;;
2022/07/08 04:56:03;;;;;;;5.3;2.5;;;;;;;12.82;87.28418;96390.28;;;;
2022/07/08 04:57:04;;;;;;;5.3;2.5;;;;;;;12.82;87.28418;96390.28;;;;
2022/07/08 04:58:05;;;;;;;7.5;2.85;;;;;;;12.79;87.33105;96392.92;;;;
2022/07/08 04:59:06;;;;;;;7.5;2.85;;;;;;;12.79;87.33105;96392.92;;;;
2022/07/08 05:00:07;;;;;;;7.5;2.85;;;;;;;12.79;87.33105;96392.92;;;;
2022/07/08 05:01:10;;;;;;;7.5;2.85;;;;;;;12.79;87.33105;96392.92;;;;
2022/07/08 05:02:10;;;;;;;7.5;2.85;;;;;;;12.79;87.33105;96392.92;;;;
2022/07/08 05:03:11;;;;;;;7.5;2.85;;;;;;;12.79;87.33105;96392.92;;;;
2022/07/08 05:04:12;;;;;;;7.5;2.85;;;;;;;12.79;87.33105;96392.92;;;;
2022/07/08 05:05:12;;;;;;;7.5;2.85;;;;;;;12.79;87.33105;96392.92;;;;
2022/07/08 05:06:13;;;;;;;7.5;2.85;;;;;;;12.79;87.33105;96392.92;;;;
2022/07/08 05:07:13;;;;;;;7.5;2.85;;;;;;;12.79;87.33105;96392.92;;;;
2022/07/08 05:08:14;;;;;;;7.5;2.85;;;;;;;12.79;87.33105;96392.92;;;;
2022/07/08 05:09:14;;;;;;;6.9;3;;;;;;;12.99;87.45605;96394.7;;;;
2022/07/08 05:10:15;;;;;;;6.9;3;;;;;;;12.99;87.45605;96394.7;;;;
2022/07/08 05:11:16;;;;;;;6.9;3;;;;;;;12.99;87.45605;96394.7;;;;
2022/07/08 05:12:16;;;;;;;6.9;3;;;;;;;12.99;87.45605;96394.7;;;;
2022/07/08 05:13:17;;;;;;;6.9;3;;;;;;;12.99;87.45605;96394.7;;;;
2022/07/08 05:14:17;;;;;;;6.9;3;;;;;;;12.99;87.45605;96394.7;;;;
2022/07/08 05:15:18;;;;;;;6.9;3;;;;;;;12.99;87.45605;96394.7;;;;
2022/07/08 05:16:19;;;;;;;6.9;3;;;;;;;12.99;87.45605;96394.7;;;;
2022/07/08 05:17:20;;;;;;;6.9;3;;;;;;;12.99;87.45605;96394.7;;;;
2022/07/08 05:18:21;;;;;;;6.9;3;;;;;;;12.99;87.45605;96394.7;;;;
2022/07/08 05:19:21;;;;;;;5.149999;2.75;;;;;;;13.23;87.35156;96408.4;;;;
2022/07/08 05:20:22;;;;;;;5.149999;2.75;;;;;;;13.23;87.35156;96408.4;;;;
2022/07/08 05:21:22;;;;;;;5.149999;2.75;;;;;;;13.23;87.35156;96408.4;;;;
2022/07/08 05:22:23;;;;;;;5.149999;2.75;;;;;;;13.23;87.35156;96408.4;;;;
2022/07/08 05:23:23;;;;;;;5.149999;2.75;;;;;;;13.23;87.35156;96408.4;;;;
2022/07/08 05:24:24;;;;;;;5.149999;2.75;;;;;;;13.23;87.35156;96408.4;;;;
2022/07/08 05:25:25;;;;;;;5.149999;2.75;;;;;;;13.23;87.35156;96408.4;;;;
2022/07/08 05:26:25;;;;;;;5.149999;2.75;;;;;;;13.23;87.35156;96408.4;;;;
2022/07/08 05:27:26;;;;;;;5.149999;2.75;;;;;;;13.23;87.35156;96408.4;;;;
2022/07/08 05:28:26;;;;;;;5.149999;2.75;;;;;;;13.23;87.35156;96408.4;;;;
2022/07/08 05:29:27;;;;;;;5.149999;2.75;;;;;;;13.23;87.35156;96408.4;;;;
2022/07/08 05:30:27;;;;;;;5.75;2.65;;;;;;;13.52;87.42188;96419.89;;;;
2022/07/08 05:31:28;;;;;;;5.75;2.65;;;;;;;13.52;87.42188;96419.89;;;;
2022/07/08 05:32:28;;;;;;;5.75;2.65;;;;;;;13.52;87.42188;96419.89;;;;
2022/07/08 05:33:29;;;;;;;5.75;2.65;;;;;;;13.52;87.42188;96419.89;;;;
2022/07/08 05:34:29;;;;;;;5.75;2.65;;;;;;;13.52;87.42188;96419.89;;;;
2022/07/08 05:35:30;;;;;;;5.75;2.65;;;;;;;13.52;87.42188;96419.89;;;;
2022/07/08 05:36:30;;;;;;;5.75;2.65;;;;;;;13.52;87.42188;96419.89;;;;
2022/07/08 05:37:31;;;;;;;5.75;2.65;;;;;;;13.52;87.42188;96419.89;;;;
2022/07/08 05:38:32;;;;;;;5.75;2.65;;;;;;;13.52;87.42188;96419.89;;;;
2022/07/08 05:39:32;;;;;;;5.75;2.65;;;;;;;13.52;87.42188;96419.89;;;;
2022/07/08 05:40:33;;;;;;;5.75;2.65;;;;;;;13.52;87.42188;96419.89;;;;
2022/07/08 05:41:33;;;;;;;8.049998;2.65;;;;;;;13.78;87.13867;96407.97;;;;